KGPT/GPT METAR and TAF weather

Enter ICAO airport designator
Station Type Date Time Source
KGPT METAR 2022/07/03 15:13 UTC NOAA

KGPT 031513Z 01005KT 10SM FEW037 BKN050 BKN085 27/26 A3009 RMK AO2 LTG DSNT E RAE13 TSE07 P0002 T02720256


Station Type Date Time Source
KGPT Decoded METAR 2022/07/03 15:13 UTC NOAA

GULFPORT-BILOXI REG AIRPORT , MS, United States (KGPT) 30-25N 089-05W 14M
Jul 03, 2022 - 11:13 AM EDT / 2022.07.03 1513 UTC
Wind: from the N (010 degrees) at 6 MPH (5 KT):0
Visibility: 10 mile(s):0
Sky conditions: mostly cloudy
Weather: Lightning observed
Precipitation last hour: 0.02 inches
Temperature: 81.0 F (27.2 C)
Dew Point: 78.1 F (25.6 C)
Relative Humidity: 90%
Pressure (altimeter): 30.09 in. Hg (1018 hPa)
ob: KGPT 031513Z 01005KT 10SM FEW037 BKN050 BKN085 27/26 A3009 RMK AO2 LTG DSNT E RAE13 TSE07 P0002 T02720256
cycle: 15

Station Type Date Time Source
KGPT TAF 2022/07/03 15:03 UTC NOAA

TAF
AMD KGPT 031501Z 0315/0412 28008KT P6SM -SHRA VCTS FEW025CB SCT090
TEMPO 0315/0319 2SM TSRA BR BKN025CB
FM031900 18009KT P6SM VCTS SCT025CB BKN090
FM040000 18008KT P6SM SCT030 BKN110

Example: see airport list